Barefoot Beach, Florida
Current Conditions -  °F | °C
As of 12:53 PM on Friday 24 Oct 2014 (Local Time) from KRSW Reporting Station
Overcast Overcast  
Wind Chill: 80°   Ceiling: 4400
Heat Index: 81°   Visibility: 10mi
Dew Point: 63°   Wind: 16mph
Humidity: 56%   Direction: 60°ENE
Pressure: 29.92"   Gusts: NA
Location:  26.3649°N, 81.8304°W
Report Text: KRSW 241653Z 06014KT 10SM OVC044 27/17 A2992 RMK AO2 SLP129 T02670172
Loading
Personal Weather Stations






























Interactive Weather Map
Tropical Storm Tracking
New forecast layout! Learn more

10-Day Weather Forecast

Advertisements
Track Severe Weather on mobile